createdAt,value
2019-03-15T00:00:43.288Z,993.22
2019-03-15T00:02:36.451Z,992.96
2019-03-15T00:03:36.457Z,993.11
2019-03-15T00:05:29.625Z,993.04
2019-03-15T00:06:29.626Z,993.15
2019-03-15T00:08:22.798Z,993.05
2019-03-15T00:09:22.797Z,993.18
2019-03-15T00:11:15.927Z,993.15
2019-03-15T00:12:15.939Z,993.18
2019-03-15T00:14:09.122Z,993.19
2019-03-15T00:15:09.114Z,993.24
2019-03-15T00:17:02.328Z,993.23
2019-03-15T00:18:02.362Z,993.24
2019-03-15T00:19:55.495Z,993.28
2019-03-15T00:20:55.484Z,993.33
2019-03-15T00:22:48.645Z,993.35
2019-03-15T00:23:48.689Z,993.26
2019-03-15T00:25:41.807Z,993.43
2019-03-15T00:26:41.815Z,993.40
2019-03-15T00:28:34.979Z,993.41
2019-03-15T00:29:34.971Z,993.41
2019-03-15T00:31:28.115Z,993.47
2019-03-15T00:32:28.139Z,993.41
2019-03-15T00:34:21.295Z,993.47
2019-03-15T00:35:21.296Z,993.46
2019-03-15T00:37:14.442Z,993.51
2019-03-15T00:38:14.448Z,993.57
2019-03-15T00:40:07.611Z,993.53
2019-03-15T00:41:07.611Z,993.64
2019-03-15T00:43:00.980Z,993.62
2019-03-15T00:44:00.831Z,993.61
2019-03-15T00:45:53.978Z,993.63
2019-03-15T00:46:53.974Z,993.63
2019-03-15T00:48:47.137Z,993.63
2019-03-15T00:49:47.263Z,993.69
2019-03-15T00:51:40.285Z,993.65
2019-03-15T00:52:40.291Z,993.73
2019-03-15T00:54:33.509Z,993.74
2019-03-15T00:55:33.518Z,993.78
2019-03-15T00:57:26.669Z,993.78
2019-03-15T00:58:26.675Z,993.69
2019-03-15T01:00:19.877Z,993.78
2019-03-15T01:01:20.511Z,993.69
2019-03-15T01:03:13.034Z,993.80
2019-03-15T01:04:13.049Z,993.84
2019-03-15T01:06:06.250Z,993.85
2019-03-15T01:07:06.243Z,993.78
2019-03-15T01:08:59.410Z,993.90
2019-03-15T01:09:59.408Z,993.91
2019-03-15T01:11:52.556Z,993.90
2019-03-15T01:12:52.565Z,993.88
2019-03-15T01:14:45.745Z,993.80
2019-03-15T01:15:45.726Z,993.85
2019-03-15T01:17:38.873Z,993.80
2019-03-15T01:18:38.891Z,993.81
2019-03-15T01:20:32.103Z,993.88
2019-03-15T01:21:32.116Z,993.84
2019-03-15T01:23:25.305Z,993.87
2019-03-15T01:24:25.327Z,993.88
2019-03-15T01:26:18.503Z,993.88
2019-03-15T01:27:18.505Z,993.91
2019-03-15T01:29:11.713Z,993.91
2019-03-15T01:30:11.708Z,993.93
2019-03-15T01:32:04.882Z,993.98
2019-03-15T01:33:04.895Z,994.01
2019-03-15T01:34:58.040Z,993.96
2019-03-15T01:35:58.042Z,993.94
2019-03-15T01:37:51.184Z,993.97
2019-03-15T01:38:51.198Z,993.94
2019-03-15T01:40:44.363Z,993.99
2019-03-15T01:41:44.376Z,993.96
2019-03-15T01:43:38.458Z,993.95
2019-03-15T01:44:37.545Z,993.90
2019-03-15T01:46:30.711Z,994.03
2019-03-15T01:47:30.711Z,994.02
2019-03-15T01:49:23.879Z,994.06
2019-03-15T01:50:24.414Z,994.02
2019-03-15T01:52:17.091Z,993.99
2019-03-15T01:53:17.090Z,993.98
2019-03-15T01:55:10.266Z,994.02
2019-03-15T01:56:10.258Z,994.02
2019-03-15T01:58:03.406Z,994.08
2019-03-15T01:59:03.403Z,994.06
2019-03-15T02:00:56.595Z,994.00
2019-03-15T02:01:56.889Z,994.01
2019-03-15T02:03:49.710Z,994.15
2019-03-15T02:04:49.724Z,994.11
2019-03-15T02:06:43.702Z,994.09
2019-03-15T02:07:42.883Z,994.04
2019-03-15T02:09:36.024Z,994.09
2019-03-15T02:10:36.045Z,994.06
2019-03-15T02:12:29.219Z,994.06
2019-03-15T02:13:29.204Z,994.04
2019-03-15T02:15:22.341Z,994.11
2019-03-15T02:16:22.366Z,994.08
2019-03-15T02:18:15.515Z,994.10
2019-03-15T02:19:15.519Z,994.10
2019-03-15T02:21:08.742Z,994.01
2019-03-15T02:22:08.733Z,994.11
2019-03-15T02:24:01.912Z,994.12
2019-03-15T02:25:01.926Z,994.07
2019-03-15T02:26:55.091Z,994.12
2019-03-15T02:27:55.091Z,994.17
2019-03-15T02:29:48.237Z,994.19
2019-03-15T02:30:48.246Z,994.27
2019-03-15T02:32:41.415Z,994.20
2019-03-15T02:33:41.415Z,994.22
2019-03-15T02:35:34.538Z,994.29
2019-03-15T02:36:34.560Z,994.27
2019-03-15T02:38:27.804Z,994.33
2019-03-15T02:39:27.807Z,994.34
2019-03-15T02:41:20.994Z,994.35
2019-03-15T02:42:20.993Z,994.38
2019-03-15T02:44:14.135Z,994.39
2019-03-15T02:45:14.150Z,994.43
2019-03-15T02:47:07.317Z,994.43
2019-03-15T02:48:07.312Z,994.41
2019-03-15T02:50:01.336Z,994.49
2019-03-15T02:51:00.476Z,994.55
2019-03-15T02:52:53.638Z,994.51
2019-03-15T02:53:53.630Z,994.59
2019-03-15T02:55:48.214Z,994.58
2019-03-15T02:56:46.802Z,994.67
2019-03-15T02:58:39.961Z,994.57
2019-03-15T02:59:39.954Z,994.64
2019-03-15T03:01:33.964Z,994.62
2019-03-15T03:02:33.115Z,994.60
2019-03-15T03:04:26.256Z,994.67
2019-03-15T03:05:26.271Z,994.71
2019-03-15T03:07:20.566Z,994.66
2019-03-15T03:08:19.433Z,994.65
2019-03-15T03:10:12.625Z,994.63
2019-03-15T03:11:12.630Z,994.64
2019-03-15T03:13:05.818Z,994.71
2019-03-15T03:14:05.792Z,994.72
2019-03-15T03:15:58.931Z,994.76
2019-03-15T03:16:58.944Z,994.74
2019-03-15T03:18:52.103Z,994.79
2019-03-15T03:19:52.243Z,994.80
2019-03-15T03:21:45.270Z,994.84
2019-03-15T03:22:45.271Z,994.80
2019-03-15T03:24:38.437Z,994.83
2019-03-15T03:25:38.432Z,994.82
2019-03-15T03:27:31.610Z,994.88
2019-03-15T03:28:31.594Z,994.94
2019-03-15T03:30:24.794Z,994.97
2019-03-15T03:31:24.770Z,995.05
2019-03-15T03:33:17.922Z,995.04
2019-03-15T03:34:17.940Z,995.00
2019-03-15T03:36:11.073Z,995.10
2019-03-15T03:37:11.094Z,995.18
2019-03-15T03:39:04.369Z,995.33
2019-03-15T03:40:04.247Z,995.23
2019-03-15T03:41:57.396Z,995.24
2019-03-15T03:42:57.409Z,995.22
2019-03-15T03:44:50.567Z,995.22
2019-03-15T03:45:50.563Z,995.24
2019-03-15T03:47:43.714Z,995.47
2019-03-15T03:48:43.720Z,995.39
2019-03-15T03:50:36.872Z,995.33
2019-03-15T03:51:36.894Z,995.39
2019-03-15T03:53:30.043Z,995.28
2019-03-15T03:54:30.524Z,995.37
2019-03-15T03:56:23.247Z,995.33
2019-03-15T03:57:23.254Z,995.31
2019-03-15T03:59:16.416Z,995.32
2019-03-15T04:00:16.428Z,995.34
2019-03-15T04:02:09.556Z,995.37
2019-03-15T04:03:09.564Z,995.39
2019-03-15T04:05:02.736Z,995.40
2019-03-15T04:06:02.736Z,995.41
2019-03-15T04:07:55.887Z,995.44
2019-03-15T04:08:55.904Z,995.49
2019-03-15T04:10:49.074Z,995.45
2019-03-15T04:11:55.251Z,995.44
2019-03-15T04:13:42.222Z,995.46
2019-03-15T04:14:42.234Z,995.43
2019-03-15T04:16:35.360Z,995.56
2019-03-15T04:17:35.426Z,995.54
2019-03-15T04:19:28.546Z,995.57
2019-03-15T04:20:28.550Z,995.54
2019-03-15T04:22:39.041Z,995.54
2019-03-15T04:23:39.111Z,995.52
2019-03-15T04:25:32.215Z,995.51
2019-03-15T04:26:32.219Z,995.54
2019-03-15T04:28:25.367Z,995.60
2019-03-15T04:29:25.395Z,995.59
2019-03-15T04:31:18.530Z,995.72
2019-03-15T04:32:18.548Z,995.58
2019-03-15T04:34:11.685Z,995.66
2019-03-15T04:35:11.690Z,995.71
2019-03-15T04:37:04.846Z,995.69
2019-03-15T04:38:04.858Z,995.75
2019-03-15T04:39:58.014Z,995.75
2019-03-15T04:40:58.018Z,995.74
2019-03-15T04:42:51.146Z,995.79
2019-03-15T04:43:51.202Z,995.72
2019-03-15T04:45:44.342Z,995.75
2019-03-15T04:46:44.342Z,995.83
2019-03-15T04:48:37.507Z,995.82
2019-03-15T04:49:37.505Z,995.83
2019-03-15T04:51:30.651Z,995.91
2019-03-15T04:52:30.673Z,995.87
2019-03-15T04:54:38.232Z,995.97
2019-03-15T04:55:38.221Z,995.90
2019-03-15T04:57:31.393Z,995.96
2019-03-15T04:58:31.409Z,996.02
2019-03-15T05:00:24.569Z,995.94
2019-03-15T05:01:24.566Z,996.18
2019-03-15T05:03:35.084Z,996.03
2019-03-15T05:04:35.094Z,996.01
2019-03-15T05:06:42.598Z,996.09
2019-03-15T05:07:42.603Z,996.02
2019-03-15T05:09:35.816Z,996.10
2019-03-15T05:10:35.767Z,996.08
2019-03-15T05:12:28.926Z,996.19
2019-03-15T05:13:28.976Z,996.15
2019-03-15T05:15:22.096Z,996.11
2019-03-15T05:16:22.102Z,996.15
2019-03-15T05:18:15.247Z,996.13
2019-03-15T05:19:15.252Z,996.10
2019-03-15T05:21:08.413Z,996.16
2019-03-15T05:22:08.411Z,996.16
2019-03-15T05:24:01.604Z,996.26
2019-03-15T05:25:01.580Z,996.35
2019-03-15T05:26:54.735Z,996.35
2019-03-15T05:27:54.733Z,996.27
2019-03-15T05:29:47.949Z,996.33
2019-03-15T05:30:47.933Z,996.31
2019-03-15T05:32:41.066Z,996.41
2019-03-15T05:33:41.106Z,996.40
2019-03-15T05:35:51.588Z,996.38
2019-03-15T05:36:51.584Z,996.54
2019-03-15T05:38:44.718Z,996.46
2019-03-15T05:39:44.722Z,996.50
2019-03-15T05:41:37.942Z,996.61
2019-03-15T05:42:37.947Z,996.53
2019-03-15T05:44:31.090Z,996.56
2019-03-15T05:45:31.097Z,996.61
2019-03-15T05:47:24.324Z,996.58
2019-03-15T05:48:24.313Z,996.56
2019-03-15T05:50:17.477Z,996.64
2019-03-15T05:51:17.468Z,996.60
2019-03-15T05:53:10.615Z,996.61
2019-03-15T05:54:10.626Z,996.68
2019-03-15T05:56:03.808Z,996.67
2019-03-15T05:57:03.809Z,996.69
2019-03-15T05:58:56.942Z,996.76
2019-03-15T05:59:56.956Z,996.76
2019-03-15T06:01:50.132Z,996.68
2019-03-15T06:02:50.125Z,996.83
2019-03-15T06:04:43.304Z,996.85
2019-03-15T06:05:43.310Z,996.80
2019-03-15T06:07:36.489Z,996.84
2019-03-15T06:08:36.494Z,996.84
2019-03-15T06:10:29.656Z,996.79
2019-03-15T06:11:29.656Z,996.82
2019-03-15T06:13:22.922Z,996.84
2019-03-15T06:14:22.809Z,996.89
2019-03-15T06:16:15.935Z,996.99
2019-03-15T06:17:15.955Z,996.99
2019-03-15T06:19:09.113Z,997.00
2019-03-15T06:20:09.125Z,997.04
2019-03-15T06:22:02.263Z,997.07
2019-03-15T06:23:02.273Z,997.03
2019-03-15T06:24:55.442Z,997.06
2019-03-15T06:25:55.452Z,997.10
2019-03-15T06:27:48.602Z,997.11
2019-03-15T06:28:48.606Z,997.10
2019-03-15T06:30:41.785Z,997.16
2019-03-15T06:31:41.770Z,997.12
2019-03-15T06:33:34.912Z,997.15
2019-03-15T06:34:34.914Z,997.18
2019-03-15T06:36:28.063Z,997.21
2019-03-15T06:37:28.074Z,997.19
2019-03-15T06:39:21.258Z,997.22
2019-03-15T06:40:21.315Z,997.28
2019-03-15T06:42:14.397Z,997.29
2019-03-15T06:43:14.410Z,997.25
2019-03-15T06:45:07.589Z,997.23
2019-03-15T06:46:07.589Z,997.23
2019-03-15T06:48:00.978Z,997.23
2019-03-15T06:49:00.753Z,997.28
2019-03-15T06:50:53.921Z,997.26
2019-03-15T06:51:53.898Z,997.24
2019-03-15T06:53:48.092Z,997.32
2019-03-15T06:54:47.058Z,997.29
2019-03-15T06:56:40.541Z,997.29
2019-03-15T06:57:40.228Z,997.31
2019-03-15T06:59:33.387Z,997.42
2019-03-15T07:00:33.388Z,997.37
2019-03-15T07:02:43.920Z,997.38
2019-03-15T07:03:43.894Z,997.38
2019-03-15T07:05:37.057Z,997.39
2019-03-15T07:06:37.051Z,997.44
2019-03-15T07:08:30.235Z,997.41
2019-03-15T07:09:31.040Z,997.42
2019-03-15T07:11:23.389Z,997.39
2019-03-15T07:12:23.388Z,997.47
2019-03-15T07:14:16.612Z,997.46
2019-03-15T07:15:16.652Z,997.44
2019-03-15T07:17:09.833Z,997.49
2019-03-15T07:18:09.852Z,997.48
2019-03-15T07:20:03.097Z,997.56
2019-03-15T07:21:03.116Z,997.55
2019-03-15T07:22:56.273Z,997.50
2019-03-15T07:23:57.839Z,997.49
2019-03-15T07:25:49.438Z,997.54
2019-03-15T07:26:49.457Z,997.52
2019-03-15T07:28:42.621Z,997.50
2019-03-15T07:29:42.699Z,997.47
2019-03-15T07:31:53.103Z,997.49
2019-03-15T07:32:53.112Z,997.64
2019-03-15T07:34:46.310Z,997.50
2019-03-15T07:35:46.322Z,997.59
2019-03-15T07:37:39.478Z,997.55
2019-03-15T07:38:39.481Z,997.60
2019-03-15T07:40:32.631Z,997.61
2019-03-15T07:41:32.645Z,997.61
2019-03-15T07:43:25.793Z,997.65
2019-03-15T07:44:25.797Z,997.68
2019-03-15T07:46:18.951Z,997.65
2019-03-15T07:47:18.968Z,997.72
2019-03-15T07:49:12.128Z,997.78
2019-03-15T07:50:14.176Z,997.79
2019-03-15T07:52:05.376Z,997.82
2019-03-15T07:53:05.380Z,997.77
2019-03-15T07:54:58.525Z,997.74
2019-03-15T07:55:58.546Z,997.78
2019-03-15T07:57:51.693Z,997.80
2019-03-15T07:58:51.740Z,997.78
2019-03-15T08:00:44.879Z,997.72
2019-03-15T08:01:44.884Z,997.76
2019-03-15T08:03:38.068Z,997.81
2019-03-15T08:04:38.038Z,997.75
2019-03-15T08:06:35.099Z,997.79
2019-03-15T08:07:36.341Z,997.83
2019-03-15T08:09:24.737Z,997.81
2019-03-15T08:10:24.374Z,997.84
2019-03-15T08:12:17.537Z,997.90
2019-03-15T08:13:17.540Z,997.92
2019-03-15T08:15:10.731Z,997.93
2019-03-15T08:16:10.707Z,997.98
2019-03-15T08:18:03.899Z,997.93
2019-03-15T08:19:05.192Z,997.96
2019-03-15T08:20:57.075Z,997.97
2019-03-15T08:21:57.129Z,997.97
2019-03-15T08:23:50.441Z,997.96
2019-03-15T08:24:51.796Z,997.90
2019-03-15T08:26:43.648Z,997.94
2019-03-15T08:27:43.574Z,997.96
2019-03-15T08:29:36.842Z,998.02
2019-03-15T08:30:36.755Z,997.98
2019-03-15T08:32:29.957Z,997.91
2019-03-15T08:33:29.978Z,998.06
2019-03-15T08:35:24.651Z,998.08
2019-03-15T08:36:23.503Z,998.06
2019-03-15T08:38:16.532Z,998.06
2019-03-15T08:39:16.373Z,998.12
2019-03-15T08:41:09.519Z,998.11
2019-03-15T08:42:09.552Z,998.09
2019-03-15T08:44:02.708Z,998.11
2019-03-15T08:45:02.697Z,998.13
2019-03-15T08:46:55.883Z,998.16
2019-03-15T08:47:55.903Z,998.15
2019-03-15T08:49:49.072Z,998.15
2019-03-15T08:50:49.078Z,998.21
2019-03-15T08:52:43.424Z,998.19
2019-03-15T08:53:43.371Z,998.16
2019-03-15T08:55:39.745Z,998.16
2019-03-15T08:56:36.528Z,998.10
2019-03-15T08:58:29.698Z,998.16
2019-03-15T08:59:29.703Z,998.18
2019-03-15T09:01:24.008Z,998.16
2019-03-15T09:02:22.855Z,998.24
2019-03-15T09:04:16.043Z,998.25
2019-03-15T09:05:16.065Z,998.17
2019-03-15T09:07:09.326Z,998.13
2019-03-15T09:08:09.233Z,998.16
2019-03-15T09:10:03.651Z,998.16
2019-03-15T09:11:02.391Z,998.23
2019-03-15T09:13:12.886Z,998.22
2019-03-15T09:14:12.907Z,998.24
2019-03-15T09:16:06.410Z,998.13
2019-03-15T09:17:06.191Z,998.15
2019-03-15T09:18:59.359Z,998.13
2019-03-15T09:19:59.354Z,998.04
2019-03-15T09:21:52.517Z,997.97
2019-03-15T09:22:52.548Z,998.03
2019-03-15T09:24:45.684Z,998.00
2019-03-15T09:25:45.684Z,997.97
2019-03-15T09:27:38.841Z,997.93
2019-03-15T09:28:38.978Z,997.97
2019-03-15T09:30:32.329Z,998.03
2019-03-15T09:31:46.686Z,997.96
2019-03-15T09:33:25.527Z,998.11
2019-03-15T09:34:25.505Z,998.09
2019-03-15T09:36:19.501Z,998.05
2019-03-15T09:37:19.509Z,998.01
2019-03-15T09:39:12.667Z,998.03
2019-03-15T09:40:12.670Z,997.95
2019-03-15T09:42:23.304Z,997.95
2019-03-15T09:43:23.195Z,997.88
2019-03-15T09:45:16.397Z,997.98
2019-03-15T09:46:16.362Z,997.97
2019-03-15T09:48:26.866Z,997.96
2019-03-15T09:49:26.874Z,997.91
2019-03-15T09:51:20.024Z,997.90
2019-03-15T09:52:20.043Z,997.88
2019-03-15T09:54:14.066Z,997.94
2019-03-15T09:55:14.097Z,997.91
2019-03-15T09:57:07.226Z,997.91
2019-03-15T09:58:07.234Z,997.94
2019-03-15T10:00:00.424Z,997.95
2019-03-15T10:01:00.576Z,997.95
2019-03-15T10:02:56.063Z,997.93
2019-03-15T10:03:53.536Z,997.92
2019-03-15T10:05:47.624Z,997.93
2019-03-15T10:06:47.572Z,997.96
2019-03-15T10:08:41.056Z,997.92
2019-03-15T10:09:46.429Z,997.92
2019-03-15T10:12:33.944Z,997.82
2019-03-15T10:14:27.119Z,997.83
2019-03-15T10:15:27.100Z,997.84
2019-03-15T10:17:22.956Z,997.80
2019-03-15T10:18:20.289Z,997.71
2019-03-15T10:20:13.518Z,997.78
2019-03-15T10:21:13.526Z,997.82
2019-03-15T10:23:25.459Z,997.67
2019-03-15T10:24:25.477Z,997.69
2019-03-15T10:26:18.633Z,997.68
2019-03-15T10:27:18.680Z,997.68
2019-03-15T10:29:15.678Z,997.73
2019-03-15T10:30:11.791Z,997.74
2019-03-15T10:32:04.992Z,997.74
2019-03-15T10:33:04.980Z,997.74
2019-03-15T10:34:58.144Z,997.72
2019-03-15T10:35:58.150Z,997.74
2019-03-15T10:37:51.285Z,997.62
2019-03-15T10:38:51.307Z,997.67
2019-03-15T10:40:45.626Z,997.65
2019-03-15T10:41:45.668Z,997.54
2019-03-15T10:43:38.886Z,997.63
2019-03-15T10:44:38.839Z,997.55
2019-03-15T10:46:32.489Z,997.57
2019-03-15T10:47:31.961Z,997.61
2019-03-15T10:49:25.128Z,997.58
2019-03-15T10:50:25.220Z,997.48
2019-03-15T10:52:35.671Z,997.44
2019-03-15T10:53:35.670Z,997.50
2019-03-15T10:55:28.860Z,997.48
2019-03-15T10:56:28.829Z,997.44
2019-03-15T10:58:21.964Z,997.40
2019-03-15T10:59:21.991Z,997.43
2019-03-15T11:01:15.132Z,997.34
2019-03-15T11:02:15.146Z,997.33
2019-03-15T11:04:08.308Z,997.33
2019-03-15T11:05:08.307Z,997.34
2019-03-15T11:07:01.471Z,997.35
2019-03-15T11:08:01.460Z,997.38
2019-03-15T11:09:54.627Z,997.27
2019-03-15T11:10:54.630Z,997.28
2019-03-15T11:12:47.788Z,997.22
2019-03-15T11:13:47.797Z,997.12
2019-03-15T11:15:40.949Z,997.14
2019-03-15T11:16:40.953Z,997.16
2019-03-15T11:18:34.095Z,997.16
2019-03-15T11:19:34.117Z,997.14
2019-03-15T11:21:27.264Z,997.12
2019-03-15T11:22:27.264Z,997.13
2019-03-15T11:24:20.458Z,996.95
2019-03-15T11:25:20.436Z,996.96
2019-03-15T11:27:13.603Z,996.97
2019-03-15T11:28:13.594Z,997.02
2019-03-15T11:30:21.104Z,997.00
2019-03-15T11:31:21.096Z,996.99
2019-03-15T11:33:14.260Z,996.89
2019-03-15T11:34:14.259Z,996.90
2019-03-15T11:36:07.424Z,996.82
2019-03-15T11:37:07.417Z,996.76
2019-03-15T11:39:00.555Z,996.79
2019-03-15T11:40:00.607Z,996.84
2019-03-15T11:41:53.727Z,996.66
2019-03-15T11:42:53.737Z,996.66
2019-03-15T11:44:46.926Z,996.63
2019-03-15T11:45:46.918Z,996.64
2019-03-15T11:48:00.627Z,996.65
2019-03-15T11:48:40.085Z,996.72
2019-03-15T11:50:33.266Z,996.68
2019-03-15T11:51:33.267Z,996.62
2019-03-15T11:53:26.417Z,996.58
2019-03-15T11:54:26.428Z,996.63
2019-03-15T11:56:26.871Z,996.58
2019-03-15T11:57:19.602Z,996.61
2019-03-15T11:59:30.092Z,996.59
2019-03-15T12:00:30.111Z,996.63
2019-03-15T12:02:23.300Z,996.71
2019-03-15T12:03:23.303Z,996.66
2019-03-15T12:05:16.473Z,996.58
2019-03-15T12:06:16.475Z,996.57
2019-03-15T12:08:09.667Z,996.53
2019-03-15T12:09:09.662Z,996.49
2019-03-15T12:11:02.875Z,996.44
2019-03-15T12:12:02.878Z,996.38
2019-03-15T12:13:56.085Z,996.24
2019-03-15T12:14:56.059Z,996.19
2019-03-15T12:16:49.223Z,996.13
2019-03-15T12:17:49.223Z,996.11
2019-03-15T12:19:42.366Z,996.10
2019-03-15T12:20:42.381Z,996.16
2019-03-15T12:22:35.546Z,996.14
2019-03-15T12:23:35.545Z,996.11
2019-03-15T12:25:31.305Z,996.12
2019-03-15T12:26:39.695Z,996.08
2019-03-15T12:28:21.903Z,995.99
2019-03-15T12:29:21.877Z,996.04
2019-03-15T12:31:32.462Z,996.02
2019-03-15T12:32:32.445Z,995.96
2019-03-15T12:34:25.589Z,995.91
2019-03-15T12:35:25.600Z,995.86
2019-03-15T12:37:18.804Z,995.89
2019-03-15T12:38:18.813Z,995.85
2019-03-15T12:40:11.999Z,995.70
2019-03-15T12:41:12.025Z,995.72
2019-03-15T12:43:05.230Z,995.69
2019-03-15T12:44:05.234Z,995.64
2019-03-15T12:45:58.439Z,995.72
2019-03-15T12:46:58.425Z,995.70
2019-03-15T12:48:51.677Z,995.59
2019-03-15T12:49:51.685Z,995.61
2019-03-15T12:51:44.839Z,995.57
2019-03-15T12:52:48.729Z,995.55
2019-03-15T12:54:38.021Z,995.48
2019-03-15T12:55:38.031Z,995.49
2019-03-15T12:57:31.233Z,995.50
2019-03-15T12:58:31.238Z,995.39
2019-03-15T13:00:24.400Z,995.40
2019-03-15T13:01:24.408Z,995.34
2019-03-15T13:03:17.567Z,995.31
2019-03-15T13:04:17.566Z,995.34
2019-03-15T13:06:10.722Z,995.36
2019-03-15T13:07:10.713Z,995.35
2019-03-15T13:09:03.873Z,995.31
2019-03-15T13:10:03.890Z,995.31
2019-03-15T13:11:57.054Z,995.19
2019-03-15T13:12:57.058Z,995.10
2019-03-15T13:14:50.205Z,995.10
2019-03-15T13:15:50.213Z,995.05
2019-03-15T13:17:43.366Z,995.03
2019-03-15T13:18:43.369Z,995.07
2019-03-15T13:20:36.608Z,994.95
2019-03-15T13:21:36.570Z,995.00
2019-03-15T13:23:29.741Z,994.87
2019-03-15T13:24:29.747Z,994.81
2019-03-15T13:26:23.027Z,994.78
2019-03-15T13:27:22.913Z,994.72
2019-03-15T13:29:16.168Z,994.76
2019-03-15T13:30:16.182Z,994.71
2019-03-15T13:32:09.334Z,994.63
2019-03-15T13:33:19.624Z,994.61
2019-03-15T13:35:02.490Z,994.58
2019-03-15T13:36:02.503Z,994.54
2019-03-15T13:37:55.698Z,994.54
2019-03-15T13:38:55.687Z,994.48
2019-03-15T13:40:48.865Z,994.52
2019-03-15T13:41:48.863Z,994.52
2019-03-15T13:43:42.022Z,994.61
2019-03-15T13:44:42.021Z,994.44
2019-03-15T13:46:35.243Z,994.51
2019-03-15T13:47:35.238Z,994.43
2019-03-15T13:49:28.420Z,994.41
2019-03-15T13:50:28.435Z,994.41
2019-03-15T13:52:21.604Z,994.23
2019-03-15T13:53:21.605Z,994.19
2019-03-15T13:55:14.814Z,994.06
2019-03-15T13:56:14.809Z,994.03
2019-03-15T13:58:07.978Z,993.99
2019-03-15T13:59:07.983Z,994.01
2019-03-15T14:01:15.472Z,993.96
2019-03-15T14:02:15.479Z,994.00
2019-03-15T14:04:08.667Z,994.07
2019-03-15T14:05:08.786Z,994.02
2019-03-15T14:07:01.811Z,993.93
2019-03-15T14:08:11.273Z,993.96
2019-03-15T14:09:54.954Z,993.97
2019-03-15T14:10:54.979Z,993.94
2019-03-15T14:12:48.127Z,993.89
2019-03-15T14:13:48.136Z,993.77
2019-03-15T14:15:41.271Z,993.75
2019-03-15T14:16:41.290Z,993.77
2019-03-15T14:18:34.458Z,993.68
2019-03-15T14:19:34.511Z,993.70
2019-03-15T14:21:27.611Z,993.71
2019-03-15T14:22:27.600Z,993.73
2019-03-15T14:24:22.849Z,993.76
2019-03-15T14:25:20.802Z,993.70
2019-03-15T14:27:14.011Z,993.71
2019-03-15T14:28:14.078Z,993.66
2019-03-15T14:30:07.161Z,993.61
2019-03-15T14:31:07.177Z,993.58
2019-03-15T14:33:17.645Z,993.48
2019-03-15T14:34:17.653Z,993.46
2019-03-15T14:36:10.800Z,993.50
2019-03-15T14:37:10.900Z,993.43
2019-03-15T14:39:16.032Z,993.41
2019-03-15T14:40:15.659Z,993.38
2019-03-15T14:42:08.806Z,993.33
2019-03-15T14:43:09.172Z,993.35
2019-03-15T14:45:02.030Z,993.29
2019-03-15T14:46:02.304Z,993.27
2019-03-15T14:48:09.524Z,993.30
2019-03-15T14:49:09.532Z,993.27
2019-03-15T14:51:02.674Z,993.19
2019-03-15T14:52:02.680Z,993.25
2019-03-15T14:53:55.862Z,993.16
2019-03-15T14:54:55.845Z,993.14
2019-03-15T14:56:49.249Z,993.12
2019-03-15T14:57:53.505Z,993.08
2019-03-15T14:59:42.219Z,993.00
2019-03-15T15:00:42.216Z,993.02
2019-03-15T15:02:35.395Z,993.00
2019-03-15T15:03:35.380Z,992.97
2019-03-15T15:05:28.566Z,993.01
2019-03-15T15:06:28.574Z,993.08
2019-03-15T15:08:21.873Z,992.83
2019-03-15T15:09:21.868Z,992.88
2019-03-15T15:11:15.033Z,992.79
2019-03-15T15:12:15.048Z,992.82
2019-03-15T15:14:08.244Z,992.74
2019-03-15T15:15:08.235Z,992.74
2019-03-15T15:17:04.593Z,992.81
2019-03-15T15:18:01.427Z,992.72
2019-03-15T15:19:54.593Z,992.71
2019-03-15T15:20:54.588Z,992.75
2019-03-15T15:22:47.725Z,992.74
2019-03-15T15:23:47.749Z,992.64
2019-03-15T15:25:40.904Z,992.50
2019-03-15T15:26:40.905Z,992.52
2019-03-15T15:28:34.088Z,992.46
2019-03-15T15:29:34.107Z,992.45
2019-03-15T15:31:27.246Z,992.38
2019-03-15T15:32:27.247Z,992.28
2019-03-15T15:34:20.418Z,992.21
2019-03-15T15:35:20.419Z,992.24
2019-03-15T15:37:13.546Z,992.21
2019-03-15T15:38:13.560Z,992.13
2019-03-15T15:40:06.827Z,992.04
2019-03-15T15:41:06.811Z,992.05
2019-03-15T15:42:59.951Z,992.13
2019-03-15T15:43:59.970Z,992.11
2019-03-15T15:45:53.130Z,992.24
2019-03-15T15:46:53.133Z,992.24
2019-03-15T15:48:46.304Z,992.22
2019-03-15T15:49:46.307Z,992.11
2019-03-15T15:51:39.443Z,992.04
2019-03-15T15:52:39.460Z,992.03
2019-03-15T15:54:32.617Z,991.95
2019-03-15T15:55:32.628Z,991.96
2019-03-15T15:57:25.783Z,991.91
2019-03-15T15:58:25.790Z,991.91
2019-03-15T16:00:19.056Z,991.96
2019-03-15T16:01:18.946Z,991.91
2019-03-15T16:03:12.190Z,991.88
2019-03-15T16:04:12.112Z,991.84
2019-03-15T16:06:05.268Z,991.73
2019-03-15T16:07:05.271Z,991.70
2019-03-15T16:08:58.436Z,991.66
2019-03-15T16:09:58.431Z,991.68
2019-03-15T16:11:51.580Z,991.72
2019-03-15T16:12:51.590Z,991.80
2019-03-15T16:14:44.835Z,991.73
2019-03-15T16:15:44.748Z,991.67
2019-03-15T16:17:37.911Z,991.69
2019-03-15T16:18:38.034Z,991.63
2019-03-15T16:20:31.081Z,991.66
2019-03-15T16:21:31.079Z,991.67
2019-03-15T16:23:24.291Z,991.65
2019-03-15T16:24:24.406Z,991.57
2019-03-15T16:26:17.479Z,991.62
2019-03-15T16:27:17.720Z,991.63
2019-03-15T16:29:10.679Z,991.75
2019-03-15T16:30:10.667Z,991.70
2019-03-15T16:32:03.927Z,991.72
2019-03-15T16:33:03.922Z,991.74
2019-03-15T16:34:57.130Z,991.73
2019-03-15T16:35:57.124Z,991.70
2019-03-15T16:37:50.283Z,991.69
2019-03-15T16:38:50.287Z,991.66
2019-03-15T16:40:43.472Z,991.56
2019-03-15T16:41:43.479Z,991.67
2019-03-15T16:43:36.611Z,991.75
2019-03-15T16:44:36.622Z,991.76
2019-03-15T16:46:29.790Z,991.75
2019-03-15T16:47:29.805Z,991.56
2019-03-15T16:49:22.925Z,991.65
2019-03-15T16:50:22.958Z,991.61
2019-03-15T16:52:16.100Z,991.64
2019-03-15T16:53:16.099Z,991.72
2019-03-15T16:55:09.267Z,991.90
2019-03-15T16:56:09.366Z,992.05
2019-03-15T16:58:02.418Z,992.43
2019-03-15T16:59:02.424Z,992.23
2019-03-15T17:00:55.578Z,992.13
2019-03-15T17:01:55.576Z,991.96
2019-03-15T17:03:48.726Z,991.91
2019-03-15T17:04:48.742Z,991.83
2019-03-15T17:06:41.919Z,991.87
2019-03-15T17:07:41.909Z,992.00
2019-03-15T17:09:35.097Z,991.93
2019-03-15T17:10:35.110Z,991.99
2019-03-15T17:12:28.279Z,991.98
2019-03-15T17:13:28.281Z,991.93
2019-03-15T17:15:38.864Z,991.88
2019-03-15T17:16:38.948Z,991.83
2019-03-15T17:18:32.021Z,991.89
2019-03-15T17:19:32.047Z,991.92
2019-03-15T17:21:25.209Z,991.96
2019-03-15T17:22:25.214Z,992.03
2019-03-15T17:24:18.347Z,992.09
2019-03-15T17:25:18.368Z,992.08
2019-03-15T17:27:11.579Z,992.07
2019-03-15T17:28:11.583Z,992.08
2019-03-15T17:30:04.737Z,992.10
2019-03-15T17:31:09.623Z,992.10
2019-03-15T17:32:57.883Z,992.03
2019-03-15T17:33:57.887Z,991.96
2019-03-15T17:35:51.062Z,992.00
2019-03-15T17:36:51.050Z,992.03
2019-03-15T17:38:44.198Z,991.98
2019-03-15T17:39:44.331Z,992.00
2019-03-15T17:41:37.375Z,992.00
2019-03-15T17:42:37.506Z,991.99
2019-03-15T17:44:44.917Z,991.94
2019-03-15T17:45:44.935Z,992.01
2019-03-15T17:47:38.180Z,992.01
2019-03-15T17:48:38.181Z,991.94
2019-03-15T17:50:31.382Z,992.01
2019-03-15T17:51:31.391Z,992.02
2019-03-15T17:53:24.539Z,992.09
2019-03-15T17:54:24.561Z,992.05
2019-03-15T17:56:17.815Z,992.08
2019-03-15T17:57:17.815Z,992.03
2019-03-15T17:59:12.555Z,992.04
2019-03-15T18:00:10.991Z,992.10
2019-03-15T18:02:21.450Z,992.12
2019-03-15T18:03:22.035Z,992.04
2019-03-15T18:05:15.609Z,992.11
2019-03-15T18:06:15.620Z,992.11
2019-03-15T18:08:08.765Z,991.98